Time;durP1;ratioP1;P1;durP2;ratioP2;P2;SDS_P1;SDS_P2;PMS_P1;PMS_P2;Temp;Humidity;BMP_temperature;BMP_pressure;BME280_temperature;BME280_humidity;BME280_pressure;Samples;Min_cycle;Max_cycle;Signal;HPM_P1;HPM_P2
2022/04/20 00:00:54;;;;;;;4.17;2.10;;;;;;;;;;5021004;28;20156;-61
2022/04/20 00:03:21;;;;;;;2.35;1.77;;;;;;;;;;5017662;28;20169;-61
2022/04/20 00:05:47;;;;;;;6.50;2.03;;;;;;;;;;5023264;28;20099;-61
2022/04/20 00:08:18;;;;;;;3.88;1.50;;;;;;;;;;5022278;28;20068;-60
2022/04/20 00:10:45;;;;;;;3.72;2.08;;;;;;;;;;5019386;28;20118;-60
2022/04/20 00:13:11;;;;;;;2.70;2.03;;;;;;;;;;5016299;28;20076;-60
2022/04/20 00:15:45;;;;;;;4.28;2.33;;;;;;;;;;5023701;28;20129;-60
2022/04/20 00:18:11;;;;;;;5.20;2.42;;;;;;;;;;5021276;28;20053;-61
2022/04/20 00:20:38;;;;;;;5.88;2.65;;;;;;;;;;5021435;28;20077;-60
2022/04/20 00:23:07;;;;;;;5.63;2.50;;;;;;;;;;5016036;28;20505;-60
2022/04/20 00:25:33;;;;;;;5.63;2.15;;;;;;;;;;5020014;28;20553;-61
2022/04/20 00:28:00;;;;;;;5.88;2.17;;;;;;;;;;5019746;28;20140;-61
2022/04/20 00:30:27;;;;;;;5.00;2.20;;;;;;;;;;5022639;28;20084;-60
2022/04/20 00:32:53;;;;;;;2.90;2.10;;;;;;;;;;5022603;28;20092;-60
2022/04/20 00:35:20;;;;;;;3.35;2.17;;;;;;;;;;5022047;28;20132;-61
2022/04/20 00:37:52;;;;;;;4.32;2.55;;;;;;;;;;5022001;28;20125;-61
2022/04/20 00:40:19;;;;;;;3.22;2.13;;;;;;;;;;5020153;28;20128;-60
2022/04/20 00:42:47;;;;;;;4.57;2.17;;;;;;;;;;5018345;28;20169;-60
2022/04/20 00:45:21;;;;;;;6.57;2.30;;;;;;;;;;5018673;28;20084;-60
2022/04/20 00:47:48;;;;;;;3.13;2.35;;;;;;;;;;5020726;28;20164;-60
2022/04/20 00:50:14;;;;;;;3.67;2.10;;;;;;;;;;5023025;28;20100;-61
2022/04/20 00:52:41;;;;;;;2.78;2.05;;;;;;;;;;5022182;28;20157;-62
2022/04/20 00:55:28;;;;;;;2.38;2.00;;;;;;;;;;5040326;28;20513;-60
2022/04/20 00:57:55;;;;;;;5.18;1.85;;;;;;;;;;5039781;28;20057;-60
2022/04/20 01:00:21;;;;;;;2.28;1.90;;;;;;;;;;5041291;28;20132;-60
2022/04/20 01:02:48;;;;;;;5.78;2.08;;;;;;;;;;5040664;28;20460;-60
2022/04/20 01:05:15;;;;;;;3.97;2.20;;;;;;;;;;5036076;28;20053;-61
2022/04/20 01:07:41;;;;;;;6.90;2.53;;;;;;;;;;5043510;28;20447;-60
2022/04/20 01:10:08;;;;;;;8.40;2.28;;;;;;;;;;5040635;28;20052;-60
2022/04/20 01:12:43;;;;;;;2.78;2.20;;;;;;;;;;5038335;28;20135;-60
2022/04/20 01:15:10;;;;;;;2.42;1.90;;;;;;;;;;5040387;28;20446;-60
2022/04/20 01:17:36;;;;;;;6.47;2.33;;;;;;;;;;5042168;28;20137;-60
2022/04/20 01:20:13;;;;;;;3.88;2.40;;;;;;;;;;5035874;28;20315;-60
2022/04/20 01:22:40;;;;;;;3.95;2.22;;;;;;;;;;5032685;28;20135;-60
2022/04/20 01:25:07;;;;;;;2.80;2.10;;;;;;;;;;5034318;28;20139;-60
2022/04/20 01:27:40;;;;;;;4.05;2.13;;;;;;;;;;5035719;28;20128;-60
2022/04/20 01:30:07;;;;;;;3.13;2.20;;;;;;;;;;5037004;28;20132;-60
2022/04/20 01:32:34;;;;;;;4.35;2.38;;;;;;;;;;5034133;28;20055;-60
2022/04/20 01:35:08;;;;;;;5.00;2.47;;;;;;;;;;5034417;28;20049;-60
2022/04/20 01:37:35;;;;;;;3.33;1.85;;;;;;;;;;5034772;28;20132;-60
2022/04/20 01:40:01;;;;;;;3.55;2.15;;;;;;;;;;5033703;28;20140;-60
2022/04/20 01:42:35;;;;;;;3.33;2.10;;;;;;;;;;5025626;28;20148;-60
2022/04/20 01:45:01;;;;;;;3.03;2.00;;;;;;;;;;5035608;28;20044;-60
2022/04/20 01:47:28;;;;;;;4.32;2.08;;;;;;;;;;5033581;28;20100;-60
2022/04/20 01:49:54;;;;;;;2.27;1.67;;;;;;;;;;5033009;28;20049;-60
2022/04/20 01:52:21;;;;;;;3.33;2.10;;;;;;;;;;5034481;28;20128;-60
2022/04/20 01:54:47;;;;;;;3.22;2.10;;;;;;;;;;5032660;28;20135;-60
2022/04/20 01:57:15;;;;;;;2.92;1.90;;;;;;;;;;5033391;28;20068;-60
2022/04/20 01:59:41;;;;;;;5.50;2.00;;;;;;;;;;5035547;28;20557;-60
2022/04/20 02:04:53;;;;;;;3.00;1.77;;;;;;;;;;5034106;28;22285;-60
2022/04/20 02:07:19;;;;;;;5.78;2.05;;;;;;;;;;5036988;28;20076;-60
2022/04/20 02:09:46;;;;;;;3.75;1.85;;;;;;;;;;5034721;28;20045;-60
2022/04/20 02:12:12;;;;;;;2.33;1.65;;;;;;;;;;5033692;28;20133;-60
2022/04/20 02:14:39;;;;;;;5.47;2.00;;;;;;;;;;5034837;28;20056;-60
2022/04/20 02:17:05;;;;;;;3.50;2.15;;;;;;;;;;5034807;28;20053;-60
2022/04/20 02:19:36;;;;;;;6.82;1.90;;;;;;;;;;5037407;28;20073;-60
2022/04/20 02:22:02;;;;;;;2.58;1.90;;;;;;;;;;5036688;28;20080;-60
2022/04/20 02:24:29;;;;;;;3.20;1.83;;;;;;;;;;5036862;28;20053;-60
2022/04/20 02:26:56;;;;;;;2.60;1.80;;;;;;;;;;5041153;28;20469;-60
2022/04/20 02:29:22;;;;;;;4.88;1.80;;;;;;;;;;5038271;28;20738;-60
2022/04/20 02:31:48;;;;;;;3.05;2.20;;;;;;;;;;5038320;28;20516;-60
2022/04/20 02:34:22;;;;;;;3.10;2.00;;;;;;;;;;5037579;28;20038;-60
2022/04/20 02:36:48;;;;;;;3.10;2.35;;;;;;;;;;5042493;28;20135;-60
2022/04/20 02:39:15;;;;;;;2.55;1.90;;;;;;;;;;5040763;28;20467;-60
2022/04/20 02:41:44;;;;;;;2.75;2.08;;;;;;;;;;5040894;28;20085;-60
2022/04/20 02:44:11;;;;;;;4.35;2.13;;;;;;;;;;5041848;28;20136;-60
2022/04/20 02:46:37;;;;;;;2.63;1.90;;;;;;;;;;5039103;28;20156;-60
2022/04/20 02:49:06;;;;;;;3.53;2.20;;;;;;;;;;5038092;28;20156;-61
2022/04/20 02:51:32;;;;;;;3.53;2.10;;;;;;;;;;5036788;28;20149;-61
2022/04/20 02:53:58;;;;;;;4.60;2.10;;;;;;;;;;5038812;28;20045;-60
2022/04/20 02:56:26;;;;;;;3.78;2.30;;;;;;;;;;5040551;28;20092;-60
2022/04/20 02:58:52;;;;;;;3.20;2.20;;;;;;;;;;5038701;28;20077;-60
2022/04/20 03:01:19;;;;;;;5.70;2.20;;;;;;;;;;5040814;28;20124;-60
2022/04/20 03:03:48;;;;;;;4.78;2.17;;;;;;;;;;5037647;28;20811;-60
2022/04/20 03:06:15;;;;;;;7.22;2.17;;;;;;;;;;5037553;28;20140;-60
2022/04/20 03:08:41;;;;;;;2.42;1.67;;;;;;;;;;5037884;28;20053;-60
2022/04/20 03:11:08;;;;;;;3.42;2.30;;;;;;;;;;5042809;28;20132;-61
2022/04/20 03:13:34;;;;;;;3.45;2.55;;;;;;;;;;5035759;28;20068;-60
2022/04/20 03:16:01;;;;;;;3.03;2.30;;;;;;;;;;5034327;28;20629;-60
2022/04/20 03:18:32;;;;;;;3.28;1.70;;;;;;;;;;5035481;28;20076;-60
2022/04/20 03:21:02;;;;;;;5.65;2.33;;;;;;;;;;5043397;28;20511;-60
2022/04/20 03:23:29;;;;;;;4.25;2.13;;;;;;;;;;5040807;28;20458;-60
2022/04/20 03:25:55;;;;;;;3.53;2.30;;;;;;;;;;5035079;28;20841;-60
2022/04/20 03:28:22;;;;;;;3.35;2.33;;;;;;;;;;5039397;28;20527;-60
2022/04/20 03:30:51;;;;;;;7.18;2.05;;;;;;;;;;5034779;28;20049;-60
2022/04/20 03:33:17;;;;;;;6.43;2.20;;;;;;;;;;5038174;28;20130;-60
2022/04/20 03:35:44;;;;;;;3.50;2.30;;;;;;;;;;5037874;28;20048;-60
2022/04/20 03:38:12;;;;;;;3.22;2.25;;;;;;;;;;5041528;28;20128;-60
2022/04/20 03:40:38;;;;;;;6.10;2.40;;;;;;;;;;5043290;28;20096;-60
2022/04/20 03:43:05;;;;;;;5.50;2.42;;;;;;;;;;5044743;28;20132;-60
2022/04/20 03:45:31;;;;;;;3.67;2.42;;;;;;;;;;5042629;28;20061;-60
2022/04/20 03:47:58;;;;;;;5.07;2.70;;;;;;;;;;5025148;28;20141;-60
2022/04/20 03:50:24;;;;;;;5.32;2.45;;;;;;;;;;5042685;28;20080;-61
2022/04/20 03:52:58;;;;;;;5.53;2.70;;;;;;;;;;5039858;28;20080;-60
2022/04/20 03:55:25;;;;;;;3.25;2.40;;;;;;;;;;5033918;28;20100;-60
2022/04/20 03:57:51;;;;;;;2.63;2.10;;;;;;;;;;5039453;28;20092;-61
2022/04/20 04:00:20;;;;;;;7.72;2.53;;;;;;;;;;5023901;28;20136;-60
2022/04/20 04:02:46;;;;;;;3.42;2.38;;;;;;;;;;5040509;28;20481;-60
2022/04/20 04:05:13;;;;;;;6.18;2.63;;;;;;;;;;5039804;28;20081;-60
2022/04/20 04:07:41;;;;;;;3.15;2.33;;;;;;;;;;5040998;28;20081;-60
2022/04/20 04:10:08;;;;;;;4.03;2.60;;;;;;;;;;5035731;28;20409;-60
2022/04/20 04:12:34;;;;;;;4.45;2.63;;;;;;;;;;5037403;28;20103;-60
2022/04/20 04:15:08;;;;;;;5.10;2.78;;;;;;;;;;5007368;28;20046;-60
2022/04/20 04:17:34;;;;;;;3.25;2.40;;;;;;;;;;4998853;28;20049;-60
2022/04/20 04:20:02;;;;;;;4.85;2.30;;;;;;;;;;5001271;28;20132;-60
2022/04/20 04:22:29;;;;;;;5.57;2.60;;;;;;;;;;5000432;28;20140;-60
2022/04/20 04:24:57;;;;;;;4.43;2.03;;;;;;;;;;5004778;28;20137;-61
2022/04/20 04:27:23;;;;;;;6.47;2.25;;;;;;;;;;5000064;28;20414;-61
2022/04/20 04:29:50;;;;;;;7.22;2.05;;;;;;;;;;4998251;28;20577;-60
2022/04/20 04:32:17;;;;;;;2.50;1.97;;;;;;;;;;5000507;28;20572;-60
2022/04/20 04:34:43;;;;;;;2.85;2.30;;;;;;;;;;5001401;28;20120;-60
2022/04/20 04:37:14;;;;;;;4.35;2.10;;;;;;;;;;4998250;28;20149;-60
2022/04/20 04:39:40;;;;;;;7.55;2.70;;;;;;;;;;4999165;28;20078;-61
2022/04/20 04:42:06;;;;;;;5.03;2.20;;;;;;;;;;5003343;28;20473;-61
2022/04/20 04:44:40;;;;;;;3.88;2.25;;;;;;;;;;4999123;28;20144;-61
2022/04/20 04:49:52;;;;;;;4.57;2.20;;;;;;;;;;5004542;28;20133;-61
2022/04/20 04:52:18;;;;;;;3.20;1.80;;;;;;;;;;4997867;28;20172;-61
2022/04/20 04:54:44;;;;;;;4.20;2.47;;;;;;;;;;5001170;28;20058;-61
2022/04/20 04:57:12;;;;;;;4.45;2.17;;;;;;;;;;4994328;28;20164;-61
2022/04/20 04:59:42;;;;;;;4.22;2.40;;;;;;;;;;4997956;28;20509;-61
2022/04/20 05:02:08;;;;;;;6.82;2.70;;;;;;;;;;4999463;28;20133;-61
2022/04/20 05:04:36;;;;;;;4.95;2.05;;;;;;;;;;4997139;28;20050;-61
2022/04/20 05:07:02;;;;;;;2.63;1.92;;;;;;;;;;5001630;28;20157;-61
2022/04/20 05:09:29;;;;;;;2.97;1.95;;;;;;;;;;5004257;28;20554;-61
2022/04/20 05:11:58;;;;;;;6.25;2.30;;;;;;;;;;4997551;28;20140;-61
2022/04/20 05:14:25;;;;;;;3.63;2.17;;;;;;;;;;5000950;28;20089;-61
2022/04/20 05:16:51;;;;;;;4.57;2.40;;;;;;;;;;4996442;28;20627;-61
2022/04/20 05:19:25;;;;;;;4.85;2.58;;;;;;;;;;5000677;28;20132;-61
2022/04/20 05:21:52;;;;;;;3.08;2.20;;;;;;;;;;5003936;28;20081;-61
2022/04/20 05:24:18;;;;;;;5.10;2.42;;;;;;;;;;5003830;28;20133;-61
2022/04/20 05:26:45;;;;;;;3.88;2.65;;;;;;;;;;4999655;28;20164;-61
2022/04/20 05:29:12;;;;;;;2.80;2.08;;;;;;;;;;4997868;28;20433;-61
2022/04/20 05:31:38;;;;;;;2.97;2.27;;;;;;;;;;5000991;28;20045;-61
2022/04/20 05:34:05;;;;;;;3.33;2.25;;;;;;;;;;4999381;28;20042;-61
2022/04/20 05:41:39;;;;;;;3.67;2.35;;;;;;;;;;4999475;28;20092;-61
2022/04/20 05:42:17;;;;;;;9.35;2.13;;;;;;;;;;4995118;28;20503;-61
2022/04/20 05:44:44;;;;;;;4.70;2.45;;;;;;;;;;4997622;28;20093;-61
2022/04/20 05:47:10;;;;;;;4.25;2.15;;;;;;;;;;4997344;28;20096;-61
2022/04/20 05:49:37;;;;;;;4.60;2.35;;;;;;;;;;4998198;28;20046;-61
2022/04/20 05:52:06;;;;;;;3.25;2.17;;;;;;;;;;4999418;28;20137;-61
2022/04/20 05:54:32;;;;;;;4.15;2.28;;;;;;;;;;4995290;28;20089;-61
2022/04/20 05:56:59;;;;;;;2.33;1.70;;;;;;;;;;4998305;28;20477;-62
2022/04/20 05:59:26;;;;;;;4.13;2.33;;;;;;;;;;5013384;28;20490;-61
2022/04/20 06:01:53;;;;;;;2.38;1.77;;;;;;;;;;4998692;28;20305;-61
2022/04/20 06:04:19;;;;;;;4.45;2.33;;;;;;;;;;5002162;28;20058;-61
2022/04/20 06:06:49;;;;;;;2.47;1.83;;;;;;;;;;4996127;28;20137;-62
2022/04/20 06:09:15;;;;;;;3.58;1.83;;;;;;;;;;5004065;28;20132;-62
2022/04/20 06:11:41;;;;;;;3.65;2.00;;;;;;;;;;4998956;28;20077;-61
2022/04/20 06:14:08;;;;;;;3.63;1.80;;;;;;;;;;4994012;28;20125;-62
2022/04/20 06:16:34;;;;;;;3.67;1.90;;;;;;;;;;5001119;28;20058;-62
2022/04/20 06:19:01;;;;;;;2.97;1.70;;;;;;;;;;4999521;28;20502;-62
2022/04/20 06:21:28;;;;;;;2.10;1.55;;;;;;;;;;5000639;28;20197;-62
2022/04/20 06:23:54;;;;;;;4.15;1.63;;;;;;;;;;4998663;28;20494;-62
2022/04/20 06:26:21;;;;;;;3.95;1.70;;;;;;;;;;4995653;28;20137;-62
2022/04/20 06:28:54;;;;;;;2.55;1.40;;;;;;;;;;4999713;28;20137;-62
2022/04/20 06:31:20;;;;;;;4.22;1.80;;;;;;;;;;5000127;28;20101;-62
2022/04/20 06:33:47;;;;;;;2.60;1.33;;;;;;;;;;4997004;28;20701;-62
2022/04/20 06:36:13;;;;;;;2.37;1.40;;;;;;;;;;5001810;28;20140;-62
2022/04/20 06:38:40;;;;;;;4.00;1.67;;;;;;;;;;5002164;28;20129;-63
2022/04/20 06:41:09;;;;;;;3.15;1.70;;;;;;;;;;5001919;28;20137;-63
2022/04/20 06:43:35;;;;;;;2.85;1.48;;;;;;;;;;5000153;28;20130;-63
2022/04/20 06:46:02;;;;;;;3.30;1.50;;;;;;;;;;4995840;28;20136;-63
2022/04/20 06:48:29;;;;;;;3.30;1.60;;;;;;;;;;4999312;28;20062;-63
2022/04/20 06:50:55;;;;;;;4.35;2.15;;;;;;;;;;4999862;28;20133;-63
2022/04/20 06:58:52;;;;;;;2.08;1.45;;;;;;;;;;4998386;28;20134;-63
2022/04/20 07:01:18;;;;;;;4.63;1.60;;;;;;;;;;4998088;28;20125;-63
2022/04/20 07:03:45;;;;;;;3.55;1.40;;;;;;;;;;4998128;28;20058;-63
2022/04/20 07:06:12;;;;;;;3.05;1.38;;;;;;;;;;4994531;28;20078;-63
2022/04/20 07:08:38;;;;;;;3.40;1.60;;;;;;;;;;4998044;28;20529;-63
2022/04/20 07:11:05;;;;;;;1.97;1.40;;;;;;;;;;5002610;28;20112;-64
2022/04/20 07:13:32;;;;;;;2.78;1.60;;;;;;;;;;5001858;28;20072;-64
2022/04/20 07:15:58;;;;;;;3.53;1.50;;;;;;;;;;5006976;28;20137;-64
2022/04/20 07:18:27;;;;;;;5.82;1.60;;;;;;;;;;5000698;28;20133;-64
2022/04/20 07:20:53;;;;;;;1.83;1.35;;;;;;;;;;5005227;28;20137;-64
2022/04/20 07:23:20;;;;;;;5.45;1.50;;;;;;;;;;5005838;28;20069;-64
2022/04/20 07:25:47;;;;;;;3.47;1.60;;;;;;;;;;5006171;28;20097;-64
2022/04/20 07:28:16;;;;;;;8.80;1.48;;;;;;;;;;5001463;28;20046;-64
2022/04/20 07:30:43;;;;;;;2.30;1.40;;;;;;;;;;5003131;28;20050;-64
2022/04/20 07:33:13;;;;;;;3.10;1.25;;;;;;;;;;5001027;28;20050;-64
2022/04/20 07:35:39;;;;;;;2.58;1.40;;;;;;;;;;4998897;28;20164;-64
2022/04/20 07:38:06;;;;;;;3.78;1.40;;;;;;;;;;4999141;28;20086;-64
2022/04/20 07:40:34;;;;;;;2.17;1.47;;;;;;;;;;5001471;28;20125;-65
2022/04/20 07:43:00;;;;;;;4.95;1.50;;;;;;;;;;5005645;28;20053;-65
2022/04/20 07:45:27;;;;;;;2.95;1.20;;;;;;;;;;5002207;28;20125;-64
2022/04/20 07:47:55;;;;;;;3.72;1.60;;;;;;;;;;5000193;28;20054;-65
2022/04/20 07:50:23;;;;;;;2.33;1.60;;;;;;;;;;4998901;28;20498;-64
2022/04/20 07:52:59;;;;;;;4.43;1.70;;;;;;;;;;4996932;28;20056;-65
2022/04/20 07:55:31;;;;;;;3.28;1.55;;;;;;;;;;5002730;28;20143;-65
2022/04/20 07:57:59;;;;;;;1.30;1.05;;;;;;;;;;5007990;28;20129;-65
2022/04/20 08:00:26;;;;;;;1.85;1.58;;;;;;;;;;5003227;28;20105;-65
2022/04/20 08:03:09;;;;;;;2.75;1.75;;;;;;;;;;5002898;28;20765;-65
2022/04/20 08:05:36;;;;;;;5.13;1.67;;;;;;;;;;5002382;28;20133;-65
2022/04/20 08:08:03;;;;;;;2.22;1.50;;;;;;;;;;5001492;28;20104;-65
2022/04/20 08:10:29;;;;;;;2.25;1.42;;;;;;;;;;5002189;28;20311;-65
2022/04/20 08:12:56;;;;;;;2.35;1.83;;;;;;;;;;5005067;28;20141;-65
2022/04/20 08:15:29;;;;;;;4.03;1.50;;;;;;;;;;5000402;28;20054;-65
2022/04/20 08:17:55;;;;;;;2.65;1.63;;;;;;;;;;5004484;28;20143;-65
2022/04/20 08:20:22;;;;;;;2.58;1.52;;;;;;;;;;5001657;28;20128;-65
2022/04/20 08:22:55;;;;;;;2.63;1.52;;;;;;;;;;4999922;28;21107;-65
2022/04/20 08:25:21;;;;;;;2.47;1.35;;;;;;;;;;5004351;28;20139;-66
2022/04/20 08:27:48;;;;;;;3.38;1.70;;;;;;;;;;5000602;28;20138;-66
2022/04/20 08:30:21;;;;;;;3.50;1.80;;;;;;;;;;4997758;28;20074;-66
2022/04/20 08:32:47;;;;;;;4.32;1.60;;;;;;;;;;5002902;28;20137;-66
2022/04/20 08:35:14;;;;;;;2.08;1.45;;;;;;;;;;4995606;28;20100;-66
2022/04/20 08:37:45;;;;;;;3.72;1.50;;;;;;;;;;5001969;28;20481;-66
2022/04/20 08:40:12;;;;;;;2.25;1.30;;;;;;;;;;5002664;28;20133;-66
2022/04/20 08:42:39;;;;;;;2.50;1.55;;;;;;;;;;5000221;28;20137;-66
2022/04/20 08:45:06;;;;;;;1.60;1.33;;;;;;;;;;4995619;28;20104;-66
2022/04/20 08:47:37;;;;;;;2.70;1.73;;;;;;;;;;5000584;28;20057;-66
2022/04/20 08:50:05;;;;;;;3.55;1.33;;;;;;;;;;4998516;28;20062;-66
2022/04/20 08:52:38;;;;;;;3.40;1.60;;;;;;;;;;4998029;28;20119;-66
2022/04/20 08:55:07;;;;;;;4.75;2.33;;;;;;;;;;5001805;28;20062;-66
2022/04/20 08:57:34;;;;;;;;;;;;;;;;;;4999766;28;20664;-66
2022/04/20 09:00:01;;;;;;;3.53;1.80;;;;;;;;;;4999239;28;19925;-66
2022/04/20 09:02:28;;;;;;;;;;;;;;;;;;5000593;28;20085;-66
2022/04/20 09:04:57;;;;;;;3.00;1.50;;;;;;;;;;4998308;28;19976;-66
2022/04/20 09:07:27;;;;;;;5.85;2.05;;;;;;;;;;5002603;28;20065;-67
2022/04/20 09:09:53;;;;;;;2.90;1.63;;;;;;;;;;4998704;28;20144;-67
2022/04/20 09:12:22;;;;;;;1.97;1.40;;;;;;;;;;4998724;28;20664;-66
2022/04/20 09:14:51;;;;;;;2.80;1.83;;;;;;;;;;4997962;28;20573;-67
2022/04/20 09:17:21;;;;;;;4.03;1.60;;;;;;;;;;5000184;28;20553;-66
2022/04/20 09:19:55;;;;;;;3.88;1.92;;;;;;;;;;4999841;28;20560;-67
2022/04/20 09:22:26;;;;;;;2.15;1.70;;;;;;;;;;5001306;28;20061;-67
2022/04/20 09:24:58;;;;;;;1.77;1.40;;;;;;;;;;5000209;28;20139;-67
2022/04/20 09:27:30;;;;;;;2.38;1.38;;;;;;;;;;4998439;28;20708;-66
2022/04/20 09:29:57;;;;;;;3.25;1.42;;;;;;;;;;4996680;28;20144;-67
2022/04/20 09:32:33;;;;;;;4.55;1.40;;;;;;;;;;4998000;28;20104;-67
2022/04/20 09:35:08;;;;;;;6.15;1.95;;;;;;;;;;4998980;28;20058;-67
2022/04/20 09:37:36;;;;;;;4.47;1.73;;;;;;;;;;4997149;28;20062;-67
2022/04/20 09:40:05;;;;;;;5.28;1.60;;;;;;;;;;5000118;28;20572;-67
2022/04/20 09:43:00;;;;;;;4.05;1.85;;;;;;;;;;4996698;28;20128;-67
2022/04/20 09:45:26;;;;;;;2.58;1.55;;;;;;;;;;5000981;28;20054;-67
2022/04/20 09:50:40;;;;;;;5.53;1.60;;;;;;;;;;4997887;28;20046;-67
2022/04/20 09:53:07;;;;;;;;;;;;;;;;;;4997648;28;20065;-67
2022/04/20 09:55:36;;;;;;;2.75;1.50;;;;;;;;;;5003218;28;19995;-67
2022/04/20 09:58:03;;;;;;;;;;;;;;;;;;4998233;28;20146;-67
2022/04/20 10:00:36;;;;;;;4.43;1.80;;;;;;;;;;5000623;28;20024;-67
2022/04/20 10:03:02;;;;;;;2.58;1.40;;;;;;;;;;4999799;28;20088;-68
2022/04/20 10:05:30;;;;;;;5.22;2.13;;;;;;;;;;5000740;28;20156;-67
2022/04/20 10:07:59;;;;;;;2.58;1.42;;;;;;;;;;4999510;28;20054;-67
2022/04/20 10:10:26;;;;;;;6.32;1.58;;;;;;;;;;5001816;28;20060;-67
2022/04/20 10:13:01;;;;;;;1.73;1.40;;;;;;;;;;5001497;28;20116;-67
2022/04/20 10:18:21;;;;;;;2.05;1.58;;;;;;;;;;4995119;28;20274;-68
2022/04/20 10:20:50;;;;;;;2.88;1.42;;;;;;;;;;4999861;28;20061;-67
2022/04/20 10:23:20;;;;;;;3.13;1.30;;;;;;;;;;5000016;28;20081;-68
2022/04/20 10:25:50;;;;;;;3.33;1.42;;;;;;;;;;5001964;28;20061;-67
2022/04/20 10:28:28;;;;;;;2.20;1.45;;;;;;;;;;4999961;28;20100;-67
2022/04/20 10:30:58;;;;;;;5.00;1.58;;;;;;;;;;4999909;28;20590;-67
2022/04/20 10:33:25;;;;;;;4.15;1.48;;;;;;;;;;4985617;28;20073;-68
2022/04/20 10:35:58;;;;;;;2.90;1.65;;;;;;;;;;4999964;28;20383;-68
2022/04/20 10:38:25;;;;;;;1.63;1.15;;;;;;;;;;4994812;28;20153;-67
2022/04/20 10:41:11;;;;;;;3.30;1.45;;;;;;;;;;4998637;28;20078;-67
2022/04/20 10:43:42;;;;;;;3.97;1.23;;;;;;;;;;5001497;28;20136;-67
2022/04/20 10:46:16;;;;;;;4.63;1.30;;;;;;;;;;5001894;28;20056;-67
2022/04/20 10:48:45;;;;;;;4.28;1.58;;;;;;;;;;5001940;28;20154;-67
2022/04/20 10:51:14;;;;;;;;;;;;;;;;;;5002094;28;20134;-67
2022/04/20 10:53:43;;;;;;;2.35;1.10;;;;;;;;;;5001905;28;19921;-67
2022/04/20 10:56:10;;;;;;;1.50;1.23;;;;;;;;;;5001248;28;20130;-67
2022/04/20 10:58:36;;;;;;;4.13;1.30;;;;;;;;;;5003043;28;20478;-67
2022/04/20 11:01:07;;;;;;;5.63;1.50;;;;;;;;;;5002441;28;20722;-67
2022/04/20 11:03:51;;;;;;;5.65;1.73;;;;;;;;;;5000406;28;20241;-67
2022/04/20 11:06:26;;;;;;;2.15;1.35;;;;;;;;;;5000507;28;20054;-67
2022/04/20 11:08:53;;;;;;;3.83;1.52;;;;;;;;;;4998012;28;20134;-67
2022/04/20 11:20:02;;;;;;;4.07;1.40;;;;;;;;;;4999451;28;20077;-67
2022/04/20 11:22:29;;;;;;;3.67;1.63;;;;;;;;;;5002214;28;20481;-67
2022/04/20 11:25:02;;;;;;;3.50;1.48;;;;;;;;;;5003253;28;20050;-68
2022/04/20 11:27:38;;;;;;;7.80;1.80;;;;;;;;;;5005408;28;20058;-68
2022/04/20 11:30:05;;;;;;;4.07;1.73;;;;;;;;;;4999495;28;20464;-67
2022/04/20 11:32:32;;;;;;;4.13;1.60;;;;;;;;;;5000467;28;20069;-68
2022/04/20 11:35:06;;;;;;;3.40;1.65;;;;;;;;;;4999174;28;20083;-67
2022/04/20 11:37:33;;;;;;;2.17;1.55;;;;;;;;;;4999016;28;20078;-68
2022/04/20 11:40:12;;;;;;;4.28;1.80;;;;;;;;;;5003487;28;20080;-67
2022/04/20 11:42:42;;;;;;;7.47;1.90;;;;;;;;;;4998870;28;20104;-68
2022/04/20 11:45:11;;;;;;;2.90;1.63;;;;;;;;;;4997053;28;20074;-67
2022/04/20 11:47:40;;;;;;;4.13;1.60;;;;;;;;;;5003544;28;20058;-68
2022/04/20 11:50:07;;;;;;;1.77;1.50;;;;;;;;;;5000196;28;20092;-68
2022/04/20 11:52:41;;;;;;;3.75;1.50;;;;;;;;;;4993555;28;20050;-68
2022/04/20 11:55:08;;;;;;;4.53;1.77;;;;;;;;;;4981848;28;293934;-67
2022/04/20 11:57:34;;;;;;;2.97;1.50;;;;;;;;;;4996024;28;20145;-68
2022/04/20 12:00:01;;;;;;;4.38;1.60;;;;;;;;;;4999514;28;20045;-67
2022/04/20 12:02:28;;;;;;;4.57;1.80;;;;;;;;;;4995989;28;20478;-67
2022/04/20 12:05:07;;;;;;;4.35;1.30;;;;;;;;;;5000258;28;20056;-67
2022/04/20 12:07:38;;;;;;;3.33;1.88;;;;;;;;;;5001886;28;20074;-68
2022/04/20 12:10:05;;;;;;;2.33;1.35;;;;;;;;;;5001882;28;20065;-67
2022/04/20 12:12:33;;;;;;;4.30;1.60;;;;;;;;;;5000333;28;20150;-67
2022/04/20 12:15:08;;;;;;;2.25;1.58;;;;;;;;;;5000445;28;20078;-68
2022/04/20 12:17:36;;;;;;;2.42;1.60;;;;;;;;;;4997043;28;20118;-67
2022/04/20 12:20:03;;;;;;;1.95;1.60;;;;;;;;;;5002774;28;20053;-68
2022/04/20 12:22:36;;;;;;;5.00;1.50;;;;;;;;;;5000014;28;20061;-68
2022/04/20 12:25:06;;;;;;;5.55;1.85;;;;;;;;;;4997541;28;20085;-68
2022/04/20 12:27:48;;;;;;;2.45;1.23;;;;;;;;;;5001309;28;20133;-68
2022/04/20 12:30:35;;;;;;;2.75;1.30;;;;;;;;;;5001832;28;20070;-68
2022/04/20 12:33:04;;;;;;;4.55;1.42;;;;;;;;;;4997406;28;20105;-68
2022/04/20 12:35:32;;;;;;;3.42;1.33;;;;;;;;;;5001528;28;20057;-67
2022/04/20 12:37:59;;;;;;;4.78;1.83;;;;;;;;;;5002082;28;20207;-68
2022/04/20 12:40:26;;;;;;;3.28;1.58;;;;;;;;;;5000679;28;20535;-68
2022/04/20 12:43:05;;;;;;;2.33;1.50;;;;;;;;;;4998452;28;20133;-68
2022/04/20 12:45:32;;;;;;;3.42;1.60;;;;;;;;;;5000097;28;20046;-68
2022/04/20 12:48:07;;;;;;;5.00;1.55;;;;;;;;;;4998954;28;20054;-67
2022/04/20 12:50:34;;;;;;;6.15;1.48;;;;;;;;;;5000187;28;20137;-67
2022/04/20 12:53:02;;;;;;;3.10;1.50;;;;;;;;;;5005210;28;20085;-68
2022/04/20 12:55:42;;;;;;;3.45;1.48;;;;;;;;;;4999501;28;20167;-68
2022/04/20 13:03:47;;;;;;;2.85;1.50;;;;;;;;;;4999863;28;20063;-67
2022/04/20 13:06:13;;;;;;;4.45;1.75;;;;;;;;;;4999568;28;20050;-67
2022/04/20 13:08:41;;;;;;;2.33;1.25;;;;;;;;;;5000463;28;20128;-68
2022/04/20 13:11:12;;;;;;;2.25;1.35;;;;;;;;;;4997282;28;20141;-68
2022/04/20 13:13:58;;;;;;;3.08;1.40;;;;;;;;;;5000952;28;20057;-67
2022/04/20 13:16:25;;;;;;;2.17;1.58;;;;;;;;;;4997686;28;20137;-67
2022/04/20 13:18:53;;;;;;;3.87;1.40;;;;;;;;;;5003251;28;20100;-68
2022/04/20 13:21:20;;;;;;;3.72;1.30;;;;;;;;;;4991870;28;20042;-68
2022/04/20 13:23:49;;;;;;;2.75;1.45;;;;;;;;;;5000404;28;20137;-68
2022/04/20 13:29:27;;;;;;;5.65;1.23;;;;;;;;;;4922897;29;20101;-67
2022/04/20 13:31:53;;;;;;;5.35;1.50;;;;;;;;;;4920540;29;20514;-68
2022/04/20 13:34:20;;;;;;;3.15;1.45;;;;;;;;;;4961823;28;20111;-68
2022/04/20 13:36:47;;;;;;;3.63;1.25;;;;;;;;;;5000621;28;20137;-68
2022/04/20 13:39:13;;;;;;;5.05;1.40;;;;;;;;;;4997906;28;20088;-67
2022/04/20 13:41:39;;;;;;;4.13;1.42;;;;;;;;;;4997592;28;20137;-67
2022/04/20 13:44:08;;;;;;;2.22;1.70;;;;;;;;;;4997580;28;20125;-67
2022/04/20 13:46:34;;;;;;;5.72;1.35;;;;;;;;;;4999741;28;20104;-67
2022/04/20 13:49:01;;;;;;;2.70;1.55;;;;;;;;;;4994644;28;20053;-67
2022/04/20 13:51:28;;;;;;;3.25;1.40;;;;;;;;;;4997008;28;20108;-67
2022/04/20 13:53:55;;;;;;;3.45;1.83;;;;;;;;;;4999173;28;20129;-68
2022/04/20 13:56:21;;;;;;;3.13;1.60;;;;;;;;;;5001488;28;20077;-67
2022/04/20 13:58:48;;;;;;;3.28;1.38;;;;;;;;;;5000034;28;20140;-67
2022/04/20 14:01:16;;;;;;;2.00;1.45;;;;;;;;;;4998584;28;20043;-67
2022/04/20 14:03:42;;;;;;;5.32;1.58;;;;;;;;;;4998284;28;20129;-67
2022/04/20 14:06:11;;;;;;;2.78;1.38;;;;;;;;;;4999719;28;20556;-67
2022/04/20 14:08:38;;;;;;;;;;;;;;;;;;4999299;28;20101;-67
2022/04/20 14:11:04;;;;;;;5.00;1.30;;;;;;;;;;5005421;28;20000;-67
2022/04/20 14:13:31;;;;;;;1.65;1.05;;;;;;;;;;4998251;28;20133;-67
2022/04/20 14:16:00;;;;;;;3.17;1.27;;;;;;;;;;4999527;28;20046;-67
2022/04/20 14:18:26;;;;;;;2.33;1.30;;;;;;;;;;5003277;28;20068;-67
2022/04/20 14:21:00;;;;;;;3.80;1.55;;;;;;;;;;5004469;28;20101;-67
2022/04/20 14:23:26;;;;;;;2.13;1.42;;;;;;;;;;4996213;28;20171;-67
2022/04/20 14:34:16;;;;;;;2.92;1.45;;;;;;;;;;5001542;28;20049;-67
2022/04/20 14:36:43;;;;;;;1.98;1.17;;;;;;;;;;4999803;28;20138;-67
2022/04/20 14:39:09;;;;;;;4.18;1.00;;;;;;;;;;4999250;28;20129;-66
2022/04/20 14:41:36;;;;;;;2.15;1.17;;;;;;;;;;4995361;28;20473;-67
2022/04/20 14:44:02;;;;;;;2.80;1.40;;;;;;;;;;4999601;28;20073;-67
2022/04/20 14:46:36;;;;;;;6.63;1.33;;;;;;;;;;4997208;28;20074;-67
2022/04/20 14:49:04;;;;;;;2.00;1.40;;;;;;;;;;4996447;28;20096;-66
2022/04/20 14:51:31;;;;;;;2.08;1.30;;;;;;;;;;4997626;28;20050;-67
2022/04/20 14:54:04;;;;;;;1.80;1.40;;;;;;;;;;4995019;28;20137;-66
2022/04/20 14:56:30;;;;;;;9.68;1.42;;;;;;;;;;5002238;28;20493;-66
2022/04/20 14:59:00;;;;;;;1.20;1.10;;;;;;;;;;5000524;28;20089;-66
2022/04/20 15:01:27;;;;;;;4.78;1.25;;;;;;;;;;4997105;28;20105;-68
2022/04/20 15:04:01;;;;;;;4.07;1.13;;;;;;;;;;4994872;28;20054;-66
2022/04/20 15:06:29;;;;;;;3.47;1.17;;;;;;;;;;4997850;28;20593;-67
2022/04/20 15:08:59;;;;;;;6.90;1.48;;;;;;;;;;4997422;28;20593;-66
2022/04/20 15:11:26;;;;;;;4.80;1.50;;;;;;;;;;4994769;28;20043;-66
2022/04/20 15:13:52;;;;;;;3.90;1.00;;;;;;;;;;5001235;28;20136;-66
2022/04/20 15:16:19;;;;;;;2.25;1.10;;;;;;;;;;4997655;28;20046;-66
2022/04/20 15:18:45;;;;;;;4.67;1.23;;;;;;;;;;4998081;28;20054;-66
2022/04/20 15:21:19;;;;;;;1.63;1.08;;;;;;;;;;4994308;28;20109;-66
2022/04/20 15:23:54;;;;;;;1.30;1.20;;;;;;;;;;5000139;28;20417;-66
2022/04/20 15:26:21;;;;;;;2.22;1.00;;;;;;;;;;5002827;28;20046;-66
2022/04/20 15:28:48;;;;;;;1.42;1.20;;;;;;;;;;5008214;28;20140;-66
2022/04/20 15:31:15;;;;;;;1.13;1.00;;;;;;;;;;5000544;28;20597;-66
2022/04/20 15:33:43;;;;;;;4.65;1.30;;;;;;;;;;5000020;28;20057;-66
2022/04/20 15:36:10;;;;;;;3.88;1.33;;;;;;;;;;5003863;28;20054;-66
2022/04/20 15:38:37;;;;;;;1.60;1.08;;;;;;;;;;4999881;28;20054;-66